Time;durP1;ratioP1;P1;durP2;ratioP2;P2;SDS_P1;SDS_P2;PMS_P1;PMS_P2;Temp;Humidity;BMP_temperature;BMP_pressure;BME280_temperature;BME280_humidity;BME280_pressure;Samples;Min_cycle;Max_cycle;Signal;HPM_P1;HPM_P2
2021/01/03 00:01:53;;;;;;;73.85;30.98;;;;;;;1.55;96.57;101867.00;5042927;28;20086;-79
2021/01/03 00:04:18;;;;;;;77.15;32.45;;;;;;;1.57;96.73;101877.28;5029422;28;20048;-77
2021/01/03 00:06:44;;;;;;;84.13;32.40;;;;;;;1.49;97.29;101873.25;5030006;28;20053;-77
2021/01/03 00:09:10;;;;;;;72.38;29.98;;;;;;;1.55;97.24;101878.19;5013546;28;20049;-78
2021/01/03 00:11:37;;;;;;;74.22;31.58;;;;;;;1.52;97.20;101870.53;5040442;28;20032;-80
2021/01/03 00:14:04;;;;;;;77.28;31.33;;;;;;;1.55;97.43;101875.59;5015055;28;20263;-78
2021/01/03 00:16:29;;;;;;;77.90;31.50;;;;;;;1.59;96.93;101872.91;5032300;28;20036;-78
2021/01/03 00:18:55;;;;;;;82.72;33.47;;;;;;;1.67;96.56;101883.78;5041938;28;20049;-77
2021/01/03 00:21:21;;;;;;;79.60;31.83;;;;;;;1.61;96.72;101865.94;5045668;28;20496;-79
2021/01/03 00:23:46;;;;;;;78.82;32.08;;;;;;;1.65;96.69;101875.25;5039206;28;20028;-78
2021/01/03 00:26:11;;;;;;;82.15;31.85;;;;;;;1.66;96.49;101870.00;5032744;28;20052;-79
2021/01/03 00:28:37;;;;;;;74.65;30.80;;;;;;;1.68;96.73;101881.13;5042639;28;20075;-78
2021/01/03 00:31:03;;;;;;;84.43;33.20;;;;;;;1.75;96.74;101885.16;5039421;28;20045;-78
2021/01/03 00:33:28;;;;;;;76.68;31.92;;;;;;;1.77;96.13;101879.06;5033032;28;20446;-77
2021/01/03 00:35:54;;;;;;;75.07;31.95;;;;;;;1.83;96.12;101881.41;5039375;28;20064;-78
2021/01/03 00:38:19;;;;;;;85.95;33.65;;;;;;;1.84;95.91;101881.34;5034458;28;20124;-78
2021/01/03 00:40:45;;;;;;;76.13;32.00;;;;;;;1.86;95.86;101887.28;5058422;28;20029;-78
2021/01/03 00:43:13;;;;;;;79.82;32.78;;;;;;;1.82;96.06;101882.31;5012676;28;20044;-79
2021/01/03 00:45:39;;;;;;;79.03;34.10;;;;;;;1.78;96.19;101870.41;5027043;28;20029;-80
2021/01/03 00:48:06;;;;;;;88.03;33.78;;;;;;;1.75;96.17;101884.31;5050039;28;20044;-78
2021/01/03 00:50:31;;;;;;;88.60;33.25;;;;;;;1.72;96.38;101879.28;5064525;28;20037;-78
2021/01/03 00:52:57;;;;;;;93.00;35.08;;;;;;;1.75;96.50;101880.00;5045257;28;20491;-78
2021/01/03 00:55:23;;;;;;;86.47;35.35;;;;;;;1.84;96.15;101885.69;5048531;28;20033;-77
2021/01/03 00:57:48;;;;;;;94.57;35.90;;;;;;;1.78;96.53;101885.94;5044302;28;20049;-77
2021/01/03 01:00:19;;;;;;;97.82;35.65;;;;;;;1.79;96.61;101885.88;5016914;28;20088;-79
2021/01/03 01:02:44;;;;;;;96.00;36.88;;;;;;;1.70;96.80;101889.66;5041846;28;20037;-78
2021/01/03 01:05:11;;;;;;;93.00;36.17;;;;;;;1.72;96.99;101892.19;5040870;28;20021;-77
2021/01/03 01:07:36;;;;;;;99.30;37.00;;;;;;;1.68;97.23;101893.22;5052423;28;20041;-78
2021/01/03 01:10:07;;;;;;;96.22;36.35;;;;;;;1.65;97.07;101890.75;5017779;28;20091;-77
2021/01/03 01:12:34;;;;;;;90.25;36.97;;;;;;;1.76;97.00;101901.53;5032336;28;20955;-77
2021/01/03 01:15:04;;;;;;;92.60;35.88;;;;;;;1.74;97.15;101899.00;5049660;28;20037;-77
2021/01/03 01:17:29;;;;;;;94.93;36.72;;;;;;;1.71;97.57;101896.53;5038669;28;21188;-77
2021/01/03 01:19:55;;;;;;;90.13;35.45;;;;;;;1.73;97.26;101899.03;5049315;28;20071;-78
2021/01/03 01:22:20;;;;;;;86.85;36.03;;;;;;;1.73;97.31;101894.72;5052437;28;20082;-79
2021/01/03 01:24:45;;;;;;;94.25;36.97;;;;;;;1.70;96.96;101894.84;5053349;28;20061;-79
2021/01/03 01:27:11;;;;;;;88.50;35.28;;;;;;;1.74;97.00;101898.16;5047583;28;20467;-80
2021/01/03 01:29:36;;;;;;;88.93;33.88;;;;;;;1.72;96.99;101903.38;5044920;28;20108;-79
2021/01/03 01:32:02;;;;;;;95.88;36.55;;;;;;;1.75;96.86;101902.41;5044190;28;20041;-80
2021/01/03 01:34:27;;;;;;;90.78;35.00;;;;;;;1.70;96.54;101889.66;5022019;28;20040;-80
2021/01/03 01:36:53;;;;;;;85.15;34.65;;;;;;;1.71;96.57;101896.53;5051770;28;20056;-79
2021/01/03 01:39:18;;;;;;;82.88;33.05;;;;;;;1.71;96.50;101898.25;5034148;28;20462;-80
2021/01/03 01:41:44;;;;;;;89.70;35.88;;;;;;;1.65;96.62;101895.94;5047798;28;20036;-79
2021/01/03 01:44:09;;;;;;;87.05;35.13;;;;;;;1.63;96.50;101902.91;5052834;28;20513;-79
2021/01/03 01:46:50;;;;;;;97.07;34.92;;;;;;;1.60;97.01;101897.84;5045894;28;20021;-79
2021/01/03 01:49:15;;;;;;;84.07;33.17;;;;;;;1.52;97.12;101896.41;5016757;28;20041;-80
2021/01/03 01:51:44;;;;;;;83.63;33.00;;;;;;;1.52;97.48;101896.41;5053826;28;20606;-78
2021/01/03 01:54:27;;;;;;;95.07;36.55;;;;;;;1.46;97.56;101894.06;5043532;28;20062;-79
2021/01/03 01:57:19;;;;;;;88.30;34.75;;;;;;;1.51;97.53;101897.31;5033627;28;20534;-78
2021/01/03 02:00:05;;;;;;;90.57;34.80;;;;;;;1.43;97.55;101901.94;5045902;28;20573;-79
2021/01/03 02:02:44;;;;;;;79.97;32.42;;;;;;;1.42;97.34;101892.50;5040692;28;20051;-79
2021/01/03 02:05:22;;;;;;;80.35;31.17;;;;;;;1.43;96.91;101888.16;5038771;28;20101;-78
2021/01/03 02:08:16;;;;;;;94.45;35.08;;;;;;;1.29;97.09;101886.13;5053195;28;20086;-78
2021/01/03 02:10:46;;;;;;;83.00;32.70;;;;;;;1.33;97.15;101890.25;5034831;28;20052;-79
2021/01/03 02:13:27;;;;;;;82.18;32.97;;;;;;;1.26;97.31;101892.25;5019790;28;20039;-77
2021/01/03 02:15:56;;;;;;;90.72;34.08;;;;;;;1.30;97.01;101891.22;5053380;28;20040;-79
2021/01/03 02:18:22;;;;;;;90.72;32.55;;;;;;;1.32;97.24;101892.00;5053267;28;20041;-78
2021/01/03 02:21:03;;;;;;;85.30;34.08;;;;;;;1.35;97.03;101898.78;5039012;28;20406;-82
2021/01/03 02:23:53;;;;;;;94.28;34.33;;;;;;;1.30;97.36;101890.38;5053996;28;20033;-79
2021/01/03 02:26:26;;;;;;;87.18;32.63;;;;;;;1.22;97.64;101900.16;5037900;28;20040;-81
2021/01/03 02:28:52;;;;;;;97.78;35.80;;;;;;;1.20;97.45;101894.22;5046967;28;20044;-81
2021/01/03 02:31:25;;;;;;;91.95;33.38;;;;;;;1.21;97.83;101904.50;5036901;28;20049;-81
2021/01/03 02:33:53;;;;;;;96.90;34.95;;;;;;;1.21;97.98;101899.34;5047757;28;20083;-79
2021/01/03 02:36:25;;;;;;;97.28;35.50;;;;;;;1.21;97.67;101908.84;5021779;28;20029;-79
2021/01/03 02:39:15;;;;;;;97.50;36.53;;;;;;;1.23;97.65;101902.69;5034696;28;20041;-79
2021/01/03 02:41:40;;;;;;;103.15;36.83;;;;;;;1.17;97.70;101905.53;5053072;28;20282;-81
2021/01/03 02:44:06;;;;;;;96.57;36.00;;;;;;;1.20;98.05;101907.13;5049969;28;20044;-81
2021/01/03 02:46:34;;;;;;;95.97;34.88;;;;;;;1.17;97.68;101898.59;5028501;28;20052;-80
2021/01/03 02:49:00;;;;;;;100.63;35.85;;;;;;;1.13;98.00;101893.59;5031758;28;20458;-81
2021/01/03 02:51:32;;;;;;;99.40;35.30;;;;;;;1.23;97.79;101901.88;5040758;28;20116;-80
2021/01/03 02:53:58;;;;;;;;;;;;;;;1.25;97.82;101897.47;5048353;28;20055;-78
2021/01/03 02:56:23;;;;;;;101.18;34.45;;;;;;;1.23;97.74;101894.94;5017454;28;19913;-77
2021/01/03 02:58:49;;;;;;;109.18;36.33;;;;;;;1.21;97.57;101890.75;5049038;28;20045;-78
2021/01/03 03:01:14;;;;;;;117.88;38.75;;;;;;;1.23;97.74;101888.94;5028572;28;20036;-78
2021/01/03 03:03:40;;;;;;;111.03;38.10;;;;;;;1.21;98.07;101889.00;5030787;28;20036;-80
2021/01/03 03:06:06;;;;;;;102.80;35.33;;;;;;;1.13;98.22;101884.13;5052665;28;20075;-77
2021/01/03 03:08:31;;;;;;;108.93;37.92;;;;;;;1.20;98.20;101889.03;5053741;28;20049;-79
2021/01/03 03:10:56;;;;;;;108.65;37.13;;;;;;;1.24;98.13;101888.84;5035497;28;20052;-77
2021/01/03 03:13:22;;;;;;;107.10;36.67;;;;;;;1.22;98.21;101892.41;5046028;28;20044;-79
2021/01/03 03:15:47;;;;;;;107.03;37.67;;;;;;;1.14;98.41;101890.13;5047345;28;20117;-77
2021/01/03 03:18:13;;;;;;;109.50;37.97;;;;;;;1.24;98.35;101895.78;5033732;28;20041;-79
2021/01/03 03:20:38;;;;;;;115.22;36.75;;;;;;;1.26;97.92;101893.97;5043124;28;20052;-78
2021/01/03 03:23:04;;;;;;;114.05;37.67;;;;;;;1.30;97.83;101896.41;5047248;28;20106;-78
2021/01/03 03:25:29;;;;;;;116.85;38.47;;;;;;;1.25;98.00;101892.31;5015994;28;20399;-77
2021/01/03 03:27:55;;;;;;;101.40;36.45;;;;;;;1.29;98.00;101889.53;5047968;28;20037;-78
2021/01/03 03:30:22;;;;;;;112.90;36.65;;;;;;;1.36;98.08;101892.75;5027806;28;20036;-78
2021/01/03 03:32:52;;;;;;;100.10;33.75;;;;;;;1.38;97.75;101893.53;5015749;28;20033;-77
2021/01/03 03:35:24;;;;;;;114.07;36.88;;;;;;;1.45;98.00;101897.56;5034593;28;20172;-77
2021/01/03 03:37:50;;;;;;;112.40;36.47;;;;;;;1.49;97.16;101893.13;5025442;28;20040;-78
2021/01/03 03:40:16;;;;;;;99.25;35.63;;;;;;;1.55;97.41;101888.53;5050066;28;20119;-77
2021/01/03 03:42:41;;;;;;;96.30;34.25;;;;;;;1.58;97.64;101894.47;5043661;28;20188;-79
2021/01/03 03:45:08;;;;;;;112.30;37.35;;;;;;;1.56;97.46;101891.94;5050185;28;20033;-79
2021/01/03 03:47:34;;;;;;;103.47;34.55;;;;;;;1.55;97.27;101890.28;5051251;28;20029;-79
2021/01/03 03:50:00;;;;;;;100.68;36.53;;;;;;;1.57;97.38;101890.22;5042022;28;20043;-79
2021/01/03 03:52:26;;;;;;;115.53;37.00;;;;;;;1.56;97.39;101881.59;5044019;28;20082;-80
2021/01/03 03:54:52;;;;;;;106.78;38.03;;;;;;;1.61;96.45;101886.63;5035650;28;20036;-81
2021/01/03 03:57:17;;;;;;;102.60;36.45;;;;;;;1.60;96.60;101890.94;5043458;28;20057;-79
2021/01/03 03:59:43;;;;;;;93.35;34.47;;;;;;;1.69;96.18;101893.16;5019111;28;20836;-79
2021/01/03 04:02:08;;;;;;;95.90;34.33;;;;;;;1.66;96.29;101882.13;5008902;28;20025;-80
2021/01/03 04:04:34;;;;;;;95.25;34.63;;;;;;;1.67;95.95;101883.78;5049012;28;20029;-79
2021/01/03 04:06:59;;;;;;;88.82;33.92;;;;;;;1.72;95.76;101892.19;5043096;28;20736;-80
2021/01/03 04:09:25;;;;;;;78.90;32.65;;;;;;;1.72;95.66;101889.63;5060741;28;20037;-79
2021/01/03 04:11:51;;;;;;;76.55;30.45;;;;;;;1.77;94.93;101889.41;5028270;28;20704;-80
2021/01/03 04:14:19;;;;;;;81.28;31.85;;;;;;;1.76;94.94;101891.19;5031028;28;20032;-79
2021/01/03 04:16:47;;;;;;;79.90;33.22;;;;;;;1.70;95.36;101894.84;5017793;28;20415;-79
2021/01/03 04:19:14;;;;;;;69.57;27.55;;;;;;;1.74;93.91;101885.22;5016446;28;20039;-80
2021/01/03 04:21:40;;;;;;;62.55;26.38;;;;;;;1.69;94.35;101872.47;5030599;28;20084;-79
2021/01/03 04:24:07;;;;;;;62.17;28.25;;;;;;;1.71;93.99;101878.44;5041098;28;20037;-79
2021/01/03 04:26:33;;;;;;;64.65;27.42;;;;;;;1.74;94.57;101885.22;5048682;28;20041;-80
2021/01/03 04:28:59;;;;;;;68.95;28.13;;;;;;;1.69;94.53;101884.56;5021730;28;20037;-79
2021/01/03 04:31:24;;;;;;;64.15;28.13;;;;;;;1.57;94.95;101882.47;5016524;28;20380;-80
2021/01/03 04:33:50;;;;;;;67.63;28.33;;;;;;;1.55;95.24;101878.19;5044935;28;20036;-80
2021/01/03 04:36:19;;;;;;;68.15;28.27;;;;;;;1.51;95.03;101878.38;5032049;28;20035;-79
2021/01/03 04:38:46;;;;;;;69.38;28.00;;;;;;;1.42;95.40;101884.75;5050844;28;20430;-79
2021/01/03 04:41:17;;;;;;;65.75;25.42;;;;;;;1.38;95.13;101882.34;5025219;28;20051;-80
2021/01/03 04:43:42;;;;;;;68.97;27.38;;;;;;;1.23;95.93;101884.59;5023854;28;20067;-81
2021/01/03 04:46:12;;;;;;;68.35;26.52;;;;;;;1.13;95.73;101880.66;5047947;28;20395;-78
2021/01/03 04:48:38;;;;;;;64.10;26.70;;;;;;;1.14;95.74;101884.94;5006835;28;20024;-79
2021/01/03 04:51:16;;;;;;;62.90;24.40;;;;;;;1.07;95.50;101886.91;5050226;28;20114;-79
2021/01/03 04:53:43;;;;;;;53.15;23.92;;;;;;;1.01;95.72;101884.56;5066106;28;20515;-79
2021/01/03 04:56:27;;;;;;;59.50;24.40;;;;;;;1.06;95.77;101895.56;5051212;28;20047;-80
2021/01/03 04:59:02;;;;;;;62.90;24.15;;;;;;;0.99;95.90;101891.53;5046309;28;20048;-80
2021/01/03 05:01:54;;;;;;;59.42;23.92;;;;;;;1.03;96.22;101897.44;5040015;28;20522;-80
2021/01/03 05:04:37;;;;;;;54.50;21.40;;;;;;;1.16;95.23;101891.72;5045573;28;20029;-80
2021/01/03 05:07:09;;;;;;;50.25;21.52;;;;;;;1.16;94.98;101896.06;5033037;28;20106;-80
2021/01/03 05:09:35;;;;;;;49.78;20.80;;;;;;;1.17;94.66;101897.78;5049290;28;20139;-81
2021/01/03 05:12:19;;;;;;;46.28;20.00;;;;;;;1.09;94.88;101892.03;5032963;28;20128;-80
2021/01/03 05:14:53;;;;;;;40.60;19.10;;;;;;;1.09;94.46;101892.88;5039398;28;20096;-80
2021/01/03 05:17:20;;;;;;;41.75;17.65;;;;;;;1.03;94.37;101887.94;5046947;28;20033;-81
2021/01/03 05:19:46;;;;;;;37.95;15.90;;;;;;;1.07;94.58;101896.41;5030185;28;20033;-81
2021/01/03 05:22:29;;;;;;;37.00;18.10;;;;;;;1.10;93.97;101902.31;5021235;28;20068;-80
2021/01/03 05:24:57;;;;;;;35.30;16.25;;;;;;;1.24;94.02;101901.78;5049005;28;20060;-81
2021/01/03 05:27:23;;;;;;;39.90;16.63;;;;;;;1.23;93.83;101904.44;5036491;28;20051;-81
2021/01/03 05:29:49;;;;;;;34.42;15.60;;;;;;;1.21;94.19;101906.25;5039470;28;20077;-81
2021/01/03 05:32:27;;;;;;;37.83;16.15;;;;;;;1.26;94.01;101906.91;5053337;28;20052;-78
2021/01/03 05:34:53;;;;;;;41.08;17.08;;;;;;;1.22;94.17;101906.16;5037123;28;20030;-78
2021/01/03 05:37:24;;;;;;;36.45;17.17;;;;;;;1.28;94.13;101912.84;5040562;28;20515;-80
2021/01/03 05:39:51;;;;;;;37.42;16.80;;;;;;;1.35;94.23;101916.91;5040456;28;20056;-82
2021/01/03 05:42:26;;;;;;;40.22;15.75;;;;;;;1.35;94.40;101922.91;5026683;28;20593;-78
2021/01/03 05:45:19;;;;;;;37.83;17.13;;;;;;;1.41;94.49;101927.00;5029774;28;20025;-80
2021/01/03 05:47:58;;;;;;;43.28;17.95;;;;;;;1.50;94.65;101928.41;5035607;28;20064;-79
2021/01/03 05:50:33;;;;;;;44.20;18.50;;;;;;;1.53;94.33;101928.28;5024059;28;20037;-79
2021/01/03 05:53:19;;;;;;;43.70;18.33;;;;;;;1.62;94.38;101932.25;5036747;28;20120;-79
2021/01/03 05:56:01;;;;;;;40.58;19.00;;;;;;;1.64;94.83;101938.19;5045196;28;20475;-79
2021/01/03 05:58:40;;;;;;;47.88;20.17;;;;;;;1.68;94.55;101939.78;5064059;28;20135;-79
2021/01/03 06:01:23;;;;;;;45.78;20.02;;;;;;;1.73;94.69;101932.66;5060970;28;20039;-80
2021/01/03 06:04:13;;;;;;;46.57;21.00;;;;;;;1.75;95.09;101936.03;5054813;28;20078;-80
2021/01/03 06:06:50;;;;;;;48.38;20.02;;;;;;;1.70;95.00;101938.00;5070315;28;20041;-80
2021/01/03 06:09:19;;;;;;;46.92;20.92;;;;;;;1.71;95.05;101939.66;5075377;28;20085;-80
2021/01/03 06:12:25;;;;;;;47.50;20.52;;;;;;;1.82;94.71;101944.41;5074625;28;20033;-82
2021/01/03 06:14:54;;;;;;;44.38;20.20;;;;;;;1.75;94.98;101936.91;5035226;28;20063;-78
2021/01/03 06:17:32;;;;;;;45.75;20.52;;;;;;;1.78;94.83;101948.88;5073774;28;20048;-82
2021/01/03 06:20:20;;;;;;;46.72;20.92;;;;;;;1.79;94.79;101940.22;5067939;28;20064;-81
2021/01/03 06:22:48;;;;;;;48.65;21.58;;;;;;;1.83;94.41;101939.19;5041529;28;20036;-82
2021/01/03 06:25:42;;;;;;;44.38;20.33;;;;;;;1.82;94.70;101945.25;5038682;28;20064;-81
2021/01/03 06:28:27;;;;;;;45.35;20.25;;;;;;;1.84;94.77;101948.63;5050282;28;20033;-79
2021/01/03 06:31:30;;;;;;;42.50;19.75;;;;;;;1.88;94.68;101952.75;5052170;28;20462;-80
2021/01/03 06:34:04;;;;;;;45.90;20.55;;;;;;;1.91;94.34;101965.59;5051424;28;20052;-80
2021/01/03 06:36:40;;;;;;;46.28;20.17;;;;;;;1.86;94.49;101961.50;5028698;28;20514;-80
2021/01/03 06:39:17;;;;;;;39.40;19.60;;;;;;;1.89;93.94;101954.47;5032046;28;20076;-80
2021/01/03 06:41:48;;;;;;;37.08;18.02;;;;;;;1.89;93.84;101954.47;5045393;28;20646;-80
2021/01/03 06:44:35;;;;;;;35.47;18.15;;;;;;;1.82;94.25;101947.00;5041757;28;20040;-79
2021/01/03 06:47:37;;;;;;;40.78;20.08;;;;;;;1.79;94.45;101954.88;5065932;28;20029;-80
2021/01/03 06:50:24;;;;;;;40.90;18.30;;;;;;;1.80;94.19;101960.00;5036124;28;20040;-80
2021/01/03 06:53:17;;;;;;;37.85;17.92;;;;;;;1.84;94.23;101964.13;5036246;28;20132;-79
2021/01/03 06:56:21;;;;;;;39.35;18.38;;;;;;;1.86;94.50;101956.31;5045103;28;20079;-81
2021/01/03 06:59:11;;;;;;;39.72;18.48;;;;;;;1.86;94.03;101959.75;5030249;28;20047;-80
2021/01/03 07:01:41;;;;;;;34.20;16.55;;;;;;;1.86;93.94;101954.56;5049417;28;20029;-78
2021/01/03 07:04:15;;;;;;;38.63;18.40;;;;;;;1.83;94.10;101961.59;5050089;28;20129;-80
2021/01/03 07:06:45;;;;;;;31.75;17.17;;;;;;;1.87;93.53;101963.19;5019675;28;20037;-79
2021/01/03 07:09:13;;;;;;;32.83;16.90;;;;;;;1.87;93.18;101969.19;5042524;28;20022;-79
2021/01/03 07:11:42;;;;;;;33.38;18.23;;;;;;;1.79;94.00;101976.44;5050819;28;20522;-80
2021/01/03 07:14:12;;;;;;;34.92;16.42;;;;;;;1.81;93.54;101968.59;5034986;28;20090;-80
2021/01/03 07:16:56;;;;;;;33.40;17.25;;;;;;;1.79;93.57;101962.63;5013414;28;20029;-81
2021/01/03 07:19:31;;;;;;;30.85;15.40;;;;;;;1.82;93.43;101962.53;5019793;28;20116;-80
2021/01/03 07:22:10;;;;;;;33.58;16.95;;;;;;;1.84;93.28;101965.91;5029686;28;20514;-80
2021/01/03 07:24:51;;;;;;;34.88;16.98;;;;;;;1.75;93.81;101967.09;5033081;28;20095;-80
2021/01/03 07:27:32;;;;;;;30.95;16.42;;;;;;;1.80;93.11;101966.91;5018073;28;20566;-78
2021/01/03 07:30:04;;;;;;;31.80;15.18;;;;;;;1.85;92.71;101970.19;5060610;28;20082;-79
2021/01/03 07:32:32;;;;;;;27.13;15.20;;;;;;;1.87;92.83;101965.78;5042604;28;20047;-77
2021/01/03 07:35:25;;;;;;;30.05;15.18;;;;;;;1.79;92.67;101972.97;5061443;28;20021;-79
2021/01/03 07:37:51;;;;;;;28.52;14.70;;;;;;;1.79;93.02;101973.84;5057528;28;20163;-80
2021/01/03 07:40:19;;;;;;;30.65;15.48;;;;;;;1.77;92.91;101980.78;5058549;28;20491;-79
2021/01/03 07:42:44;;;;;;;30.70;17.02;;;;;;;1.79;92.69;101983.34;5032785;28;20052;-79
2021/01/03 07:45:13;;;;;;;32.80;15.40;;;;;;;1.70;92.83;101975.03;5047446;28;20033;-80
2021/01/03 07:47:41;;;;;;;27.77;15.15;;;;;;;1.75;92.78;101980.00;5047572;28;20043;-80
2021/01/03 07:50:38;;;;;;;31.90;15.80;;;;;;;1.70;92.05;101981.97;5051396;28;20029;-78
2021/01/03 07:53:25;;;;;;;28.27;14.38;;;;;;;1.75;91.94;101975.72;5058961;28;20125;-81
2021/01/03 07:55:51;;;;;;;25.77;13.50;;;;;;;1.75;91.87;101977.44;5048717;28;20033;-79
2021/01/03 07:58:20;;;;;;;26.85;13.82;;;;;;;1.67;91.99;101961.38;5055227;28;20465;-78
2021/01/03 08:00:53;;;;;;;26.65;13.73;;;;;;;1.78;91.12;101969.56;5036449;28;20043;-78
2021/01/03 08:03:22;;;;;;;27.02;14.18;;;;;;;1.70;91.59;101975.03;5038609;28;20123;-79
2021/01/03 08:05:48;;;;;;;26.48;13.80;;;;;;;1.75;90.30;101969.66;5024680;28;20411;-77
2021/01/03 08:08:26;;;;;;;24.05;13.27;;;;;;;1.74;90.41;101973.19;5045720;28;20037;-81
2021/01/03 08:11:23;;;;;;;23.17;12.77;;;;;;;1.68;90.33;101969.06;5047479;28;20036;-81
2021/01/03 08:13:52;;;;;;;25.65;14.05;;;;;;;1.67;90.85;101976.88;5043279;28;20037;-79
2021/01/03 08:16:27;;;;;;;22.83;12.73;;;;;;;1.67;90.65;101980.31;5045981;28;20036;-82
2021/01/03 08:18:58;;;;;;;26.92;13.73;;;;;;;1.71;89.57;101983.63;5052286;28;20587;-79
2021/01/03 08:21:23;;;;;;;23.25;13.23;;;;;;;1.71;89.65;101970.69;5052464;28;20045;-80
2021/01/03 08:23:49;;;;;;;24.35;13.52;;;;;;;1.72;90.09;101978.41;5050480;28;20139;-80
2021/01/03 08:26:26;;;;;;;25.08;13.63;;;;;;;1.65;90.14;101965.75;5024791;28;20130;-78
2021/01/03 08:28:52;;;;;;;25.17;13.07;;;;;;;1.72;90.19;101983.56;5045076;28;20474;-80
2021/01/03 08:31:19;;;;;;;23.42;14.32;;;;;;;1.73;90.49;101976.66;5043143;28;20045;-82
2021/01/03 08:33:49;;;;;;;27.10;13.77;;;;;;;1.70;90.70;101977.63;5034167;28;20036;-80
2021/01/03 08:36:17;;;;;;;27.48;14.15;;;;;;;1.73;90.41;101972.34;5032967;28;20039;-79
2021/01/03 08:38:43;;;;;;;26.77;14.48;;;;;;;1.66;91.16;101983.81;5045939;28;20045;-80
2021/01/03 08:41:15;;;;;;;23.48;14.40;;;;;;;1.60;91.10;101978.88;5052439;28;20048;-79
2021/01/03 08:43:42;;;;;;;24.35;14.98;;;;;;;1.70;91.05;101989.72;5048416;28;20111;-79
2021/01/03 08:46:08;;;;;;;25.42;14.20;;;;;;;1.67;91.65;101982.06;5049476;28;20040;-81
2021/01/03 08:48:34;;;;;;;25.55;14.30;;;;;;;1.72;91.62;101991.34;5043102;28;20271;-80
2021/01/03 08:51:13;;;;;;;24.30;14.07;;;;;;;1.72;90.44;101988.75;5048494;28;20037;-81
2021/01/03 08:53:39;;;;;;;23.45;12.98;;;;;;;1.71;90.33;101987.06;5040488;28;20029;-79
2021/01/03 08:56:10;;;;;;;23.08;13.75;;;;;;;1.75;90.43;102000.72;5066992;28;20167;-79
2021/01/03 08:58:38;;;;;;;24.25;14.63;;;;;;;1.78;90.74;101994.59;5051650;28;20044;-80
2021/01/03 09:01:06;;;;;;;19.70;12.05;;;;;;;1.80;90.15;101997.97;5045569;28;20415;-80
2021/01/03 09:03:34;;;;;;;23.58;12.50;;;;;;;1.85;89.97;102003.81;5027578;28;20037;-79
2021/01/03 09:06:00;;;;;;;21.63;12.35;;;;;;;1.91;90.12;102000.97;5054754;28;20049;-80
2021/01/03 09:08:32;;;;;;;22.15;12.73;;;;;;;1.94;89.30;102001.72;5044184;28;20048;-80
2021/01/03 09:11:03;;;;;;;16.88;10.80;;;;;;;1.95;89.58;102000.78;5032933;28;20036;-80
2021/01/03 09:13:29;;;;;;;20.77;11.85;;;;;;;1.95;88.76;102000.78;5022766;28;20056;-80
2021/01/03 09:16:05;;;;;;;18.67;12.10;;;;;;;1.93;89.00;102001.75;5044894;28;20064;-80
2021/01/03 09:18:38;;;;;;;22.45;12.50;;;;;;;1.89;89.03;102003.63;5041041;28;20038;-79
2021/01/03 09:21:07;;;;;;;22.88;11.20;;;;;;;1.99;88.81;102008.44;5048499;28;20056;-78
2021/01/03 09:23:37;;;;;;;17.00;10.88;;;;;;;2.09;88.79;102009.75;5042792;28;20063;-77
2021/01/03 09:26:02;;;;;;;17.38;10.63;;;;;;;2.04;88.13;102007.34;5045279;28;20041;-79
2021/01/03 09:28:37;;;;;;;19.27;10.98;;;;;;;2.16;88.77;102011.19;5036952;28;20116;-79
2021/01/03 09:31:15;;;;;;;20.13;11.38;;;;;;;2.28;88.39;102010.72;5044647;28;20503;-80
2021/01/03 09:33:47;;;;;;;25.83;11.43;;;;;;;2.34;88.58;102005.28;5048138;28;20037;-78
2021/01/03 09:36:46;;;;;;;17.53;10.57;;;;;;;2.46;87.27;101997.94;5047876;28;20032;-80
2021/01/03 09:39:43;;;;;;;19.25;10.23;;;;;;;2.38;87.44;102010.34;5035839;28;20045;-78
2021/01/03 09:42:35;;;;;;;17.08;9.90;;;;;;;2.48;86.69;102009.91;5049041;28;20056;-77
2021/01/03 09:45:20;;;;;;;15.23;9.48;;;;;;;2.44;85.70;101992.81;5026788;28;20059;-79
2021/01/03 09:47:48;;;;;;;21.30;9.75;;;;;;;2.50;86.62;102002.06;5050930;28;20076;-82
2021/01/03 09:50:30;;;;;;;14.65;9.57;;;;;;;2.63;86.93;102011.00;5036501;28;20086;-80
2021/01/03 09:53:20;;;;;;;13.70;8.80;;;;;;;2.63;85.29;102003.25;5047568;28;20651;-80
2021/01/03 09:56:12;;;;;;;13.73;8.55;;;;;;;2.60;85.40;102005.13;5050829;28;20036;-79
2021/01/03 09:58:41;;;;;;;13.63;8.13;;;;;;;2.64;85.32;102004.94;5047712;28;20033;-79
2021/01/03 10:01:22;;;;;;;11.32;7.38;;;;;;;2.68;85.10;102003.91;5041423;28;20045;-78
2021/01/03 10:03:47;;;;;;;10.48;7.07;;;;;;;2.60;84.48;101998.22;5045625;28;20064;-80
2021/01/03 10:06:29;;;;;;;11.00;6.95;;;;;;;2.55;84.81;101997.53;5052158;28;20068;-78
2021/01/03 10:09:30;;;;;;;11.20;7.25;;;;;;;2.61;85.22;101997.28;5045077;28;20761;-78
2021/01/03 10:11:57;;;;;;;10.60;6.45;;;;;;;2.67;84.47;101991.84;5028092;28;20045;-78
2021/01/03 10:14:32;;;;;;;9.25;6.10;;;;;;;2.78;83.47;101987.97;5053076;28;20047;-80
2021/01/03 10:17:16;;;;;;;10.50;5.65;;;;;;;2.88;82.55;101989.25;5021279;28;20114;-79
2021/01/03 10:19:42;;;;;;;9.45;6.13;;;;;;;2.85;81.73;101989.38;5036645;28;20052;-80
2021/01/03 10:22:33;;;;;;;8.25;5.72;;;;;;;2.90;82.78;101982.25;5018605;28;20041;-78
2021/01/03 10:25:03;;;;;;;9.20;6.05;;;;;;;2.95;82.45;101985.47;5037195;28;20041;-79
2021/01/03 10:27:28;;;;;;;7.30;5.22;;;;;;;3.03;82.65;101988.59;5039252;28;20078;-78
2021/01/03 10:29:54;;;;;;;7.82;5.40;;;;;;;3.05;81.65;101989.38;5055463;28;20036;-79
2021/01/03 10:32:20;;;;;;;7.78;5.13;;;;;;;2.98;82.07;102000.06;5040970;28;20041;-79
2021/01/03 10:34:46;;;;;;;7.07;4.82;;;;;;;2.88;81.85;101992.69;5045563;28;20041;-78
2021/01/03 10:37:12;;;;;;;6.80;4.95;;;;;;;2.82;82.12;101994.69;5038481;28;20592;-80
2021/01/03 10:39:37;;;;;;;4.82;3.88;;;;;;;2.83;82.11;101999.81;5041646;28;20041;-80
2021/01/03 10:42:05;;;;;;;6.47;4.15;;;;;;;2.83;82.28;101994.63;5039224;28;20041;-81
2021/01/03 10:44:31;;;;;;;6.50;4.43;;;;;;;2.78;82.79;101988.78;5056641;28;20079;-78
2021/01/03 10:46:57;;;;;;;7.18;4.32;;;;;;;2.84;82.57;102000.66;5053904;28;20119;-77
2021/01/03 10:49:23;;;;;;;6.47;4.10;;;;;;;2.77;82.87;101991.44;5037256;28;20126;-77
2021/01/03 10:51:49;;;;;;;5.78;3.63;;;;;;;2.80;83.19;101996.50;5055026;28;20495;-77
2021/01/03 10:54:18;;;;;;;5.78;4.25;;;;;;;2.81;83.42;102000.81;5043276;28;20038;-77
2021/01/03 10:56:52;;;;;;;5.05;4.03;;;;;;;2.69;83.56;102007.31;5032549;28;20025;-76
2021/01/03 10:59:18;;;;;;;5.53;4.30;;;;;;;2.69;83.67;102000.41;5049836;28;20047;-77
2021/01/03 11:01:44;;;;;;;4.75;3.78;;;;;;;2.68;83.04;101998.72;5047075;28;20033;-78
2021/01/03 11:04:11;;;;;;;5.10;3.65;;;;;;;2.76;82.89;101995.78;5026840;28;20044;-76
2021/01/03 11:06:39;;;;;;;5.28;3.75;;;;;;;2.70;83.79;101996.06;5034461;28;20426;-78
2021/01/03 11:09:06;;;;;;;6.32;3.70;;;;;;;2.72;83.73;101992.50;5034525;28;20498;-77
2021/01/03 11:11:31;;;;;;;5.00;3.65;;;;;;;2.70;83.41;101981.34;5029415;28;20041;-77
2021/01/03 11:13:57;;;;;;;5.32;3.72;;;;;;;2.73;83.51;101977.78;5041200;28;20124;-77
2021/01/03 11:16:30;;;;;;;6.63;3.42;;;;;;;2.78;82.92;101970.66;5044260;28;20029;-79
2021/01/03 11:18:56;;;;;;;4.00;3.08;;;;;;;2.78;82.99;101981.03;5068898;28;20052;-77
2021/01/03 11:21:21;;;;;;;4.85;3.17;;;;;;;2.71;82.64;101974.41;5051319;28;20037;-77
2021/01/03 11:23:47;;;;;;;3.95;3.08;;;;;;;2.62;82.69;101977.38;5051765;28;20762;-77
2021/01/03 11:26:12;;;;;;;4.63;2.90;;;;;;;2.61;82.19;101968.78;5035264;28;20028;-77
2021/01/03 11:28:37;;;;;;;6.65;3.05;;;;;;;2.70;83.65;101972.75;5048403;28;20553;-77
2021/01/03 11:31:03;;;;;;;4.07;2.90;;;;;;;2.75;82.79;101970.81;5047930;28;20052;-78
2021/01/03 11:33:28;;;;;;;4.57;3.03;;;;;;;2.78;82.38;101967.22;5050607;28;20494;-77
2021/01/03 11:35:55;;;;;;;5.38;3.10;;;;;;;2.77;83.63;101960.34;5033404;28;20029;-78
2021/01/03 11:38:22;;;;;;;5.78;2.88;;;;;;;2.81;82.29;101955.00;5024162;28;20175;-79
2021/01/03 11:40:47;;;;;;;3.42;2.78;;;;;;;2.79;83.11;101954.22;5045775;28;20040;-79